createdAt,value
2022-08-16T00:01:11.824Z,21.12
2022-08-16T00:03:38.876Z,21.13
2022-08-16T00:06:08.142Z,21.14
2022-08-16T00:08:37.799Z,21.11
2022-08-16T00:11:15.158Z,21.12
2022-08-16T00:13:43.170Z,21.08
2022-08-16T00:17:05.551Z,21.09
2022-08-16T00:19:06.458Z,21.08
2022-08-16T00:21:33.940Z,21.06
2022-08-16T00:24:04.799Z,21.06
2022-08-16T00:26:36.160Z,20.98
2022-08-16T00:29:05.667Z,20.95
2022-08-16T00:31:58.857Z,20.88
2022-08-16T00:34:44.781Z,20.89
2022-08-16T00:37:11.634Z,20.87
2022-08-16T00:39:38.988Z,20.83
2022-08-16T00:42:10.118Z,20.72
2022-08-16T00:44:39.511Z,20.68
2022-08-16T00:47:16.353Z,20.67
2022-08-16T00:49:44.439Z,20.63
2022-08-16T00:52:30.201Z,20.59
2022-08-16T00:54:59.350Z,20.57
2022-08-16T00:57:58.302Z,20.55
2022-08-16T01:00:19.866Z,20.54
2022-08-16T01:02:48.954Z,20.55
2022-08-16T01:05:16.211Z,20.56
2022-08-16T01:07:52.007Z,20.53
2022-08-16T01:10:31.326Z,20.55
2022-08-16T01:13:04.527Z,20.47
2022-08-16T01:15:33.923Z,20.47
2022-08-16T01:18:02.965Z,20.37
2022-08-16T01:20:33.947Z,20.34
2022-08-16T01:23:17.837Z,20.29
2022-08-16T01:25:59.851Z,20.31
2022-08-16T01:28:30.622Z,20.29
2022-08-16T01:30:59.795Z,20.30
2022-08-16T01:33:33.303Z,20.33
2022-08-16T01:36:11.812Z,20.31
2022-08-16T01:38:49.003Z,20.27
2022-08-16T01:41:22.814Z,20.24
2022-08-16T01:43:53.755Z,20.21
2022-08-16T01:46:40.014Z,20.26
2022-08-16T01:49:43.668Z,20.30
2022-08-16T01:52:28.187Z,20.33
2022-08-16T01:54:58.263Z,20.33
2022-08-16T01:57:27.802Z,20.30
2022-08-16T01:59:58.484Z,20.30
2022-08-16T02:02:27.288Z,20.31
2022-08-16T02:04:55.342Z,20.29
2022-08-16T02:07:23.746Z,20.25
2022-08-16T02:09:58.892Z,20.28
2022-08-16T02:12:50.044Z,20.28
2022-08-16T02:15:25.469Z,20.27
2022-08-16T02:17:53.253Z,20.27
2022-08-16T02:20:26.388Z,20.24
2022-08-16T02:22:55.322Z,20.19
2022-08-16T02:25:22.751Z,20.20
2022-08-16T02:27:51.488Z,20.17
2022-08-16T02:30:37.553Z,20.16
2022-08-16T02:33:10.295Z,20.17
2022-08-16T02:35:54.093Z,20.13
2022-08-16T02:38:24.978Z,20.10
2022-08-16T02:40:54.417Z,20.06
2022-08-16T02:43:26.654Z,20.07
2022-08-16T02:45:54.200Z,20.04
2022-08-16T02:48:29.502Z,20.04
2022-08-16T02:51:10.691Z,20.06
2022-08-16T02:53:47.505Z,20.03
2022-08-16T02:56:17.920Z,20.03
2022-08-16T02:58:50.659Z,19.99
2022-08-16T03:01:33.745Z,20.05
2022-08-16T03:04:41.132Z,20.12
2022-08-16T03:06:55.271Z,20.17
2022-08-16T03:09:24.332Z,20.14
2022-08-16T03:11:51.011Z,20.16
2022-08-16T03:14:21.405Z,20.14
2022-08-16T03:16:59.212Z,20.19
2022-08-16T03:19:47.431Z,20.09
2022-08-16T03:22:18.985Z,20.09
2022-08-16T03:24:54.783Z,20.08
2022-08-16T03:27:25.138Z,20.08
2022-08-16T03:29:57.831Z,20.10
2022-08-16T03:32:24.480Z,20.13
2022-08-16T03:34:52.927Z,20.10
2022-08-16T03:37:19.657Z,20.10
2022-08-16T03:39:47.029Z,20.04
2022-08-16T03:42:20.502Z,20.04
2022-08-16T03:44:50.004Z,19.96
2022-08-16T03:47:19.115Z,19.91
2022-08-16T03:49:51.410Z,19.86
2022-08-16T03:52:20.589Z,19.91
2022-08-16T03:54:57.452Z,19.93
2022-08-16T03:57:31.762Z,19.87
2022-08-16T04:00:35.555Z,19.85
2022-08-16T04:03:08.802Z,19.88
2022-08-16T04:05:48.457Z,19.86
2022-08-16T04:08:23.051Z,19.84
2022-08-16T04:10:51.817Z,19.88
2022-08-16T04:13:20.238Z,19.88
2022-08-16T04:16:06.563Z,19.85
2022-08-16T04:18:36.818Z,19.79
2022-08-16T04:21:04.018Z,19.81
2022-08-16T04:23:30.680Z,19.81
2022-08-16T04:25:57.377Z,19.71
2022-08-16T04:28:54.357Z,19.67
2022-08-16T04:31:15.642Z,19.78
2022-08-16T04:33:50.873Z,19.80
2022-08-16T04:36:20.212Z,19.77
2022-08-16T04:38:47.270Z,19.76
2022-08-16T04:41:17.499Z,19.78
2022-08-16T04:43:44.731Z,19.71
2022-08-16T04:47:00.130Z,19.74
2022-08-16T04:49:03.899Z,19.78
2022-08-16T04:51:36.066Z,19.84
2022-08-16T04:54:06.081Z,19.93
2022-08-16T04:56:33.371Z,19.93
2022-08-16T04:59:00.734Z,19.98
2022-08-16T05:01:57.758Z,20.02
2022-08-16T05:04:19.240Z,20.06
2022-08-16T05:06:46.599Z,20.15
2022-08-16T05:09:14.517Z,20.18
2022-08-16T05:11:43.275Z,20.14
2022-08-16T05:14:10.159Z,20.13
2022-08-16T05:16:36.870Z,20.08
2022-08-16T05:19:04.950Z,20.15
2022-08-16T05:21:36.020Z,20.20
2022-08-16T05:24:07.137Z,20.28
2022-08-16T05:26:37.553Z,20.38
2022-08-16T05:29:10.817Z,20.54
2022-08-16T05:31:44.189Z,20.58
2022-08-16T05:34:19.950Z,20.61
2022-08-16T05:36:51.154Z,20.68
2022-08-16T05:39:18.812Z,20.74
2022-08-16T05:41:47.755Z,20.78
2022-08-16T05:44:22.904Z,20.81
2022-08-16T05:47:00.318Z,20.83
2022-08-16T05:49:38.901Z,20.88
2022-08-16T05:52:11.375Z,20.95
2022-08-16T05:54:45.950Z,20.97
2022-08-16T05:57:14.552Z,20.97
2022-08-16T05:59:41.870Z,20.86
2022-08-16T06:02:08.614Z,20.73
2022-08-16T06:04:37.539Z,20.76
2022-08-16T06:07:08.164Z,20.79
2022-08-16T06:09:37.155Z,20.90
2022-08-16T06:12:10.976Z,20.98
2022-08-16T06:14:40.107Z,21.07
2022-08-16T06:17:07.610Z,21.16
2022-08-16T06:19:35.796Z,21.24
2022-08-16T06:22:03.253Z,21.28
2022-08-16T06:24:53.815Z,21.36
2022-08-16T06:27:17.144Z,21.37
2022-08-16T06:29:44.702Z,21.36
2022-08-16T06:32:27.369Z,21.40
2022-08-16T06:35:02.834Z,21.41
2022-08-16T06:37:36.974Z,21.52
2022-08-16T06:40:05.628Z,21.61
2022-08-16T06:42:47.907Z,21.61
2022-08-16T06:45:15.705Z,21.72
2022-08-16T06:47:53.396Z,21.76
2022-08-16T06:50:31.533Z,21.87
2022-08-16T06:53:06.837Z,21.94
2022-08-16T06:55:38.289Z,22.09
2022-08-16T06:58:08.095Z,22.18
2022-08-16T07:00:37.637Z,22.29
2022-08-16T07:03:26.809Z,22.29
2022-08-16T07:05:53.926Z,22.39
2022-08-16T07:08:21.063Z,22.49
2022-08-16T07:10:47.838Z,22.51
2022-08-16T07:13:23.052Z,22.61
2022-08-16T07:16:02.709Z,22.64
2022-08-16T07:18:29.579Z,22.46
2022-08-16T07:21:01.711Z,22.39
2022-08-16T07:23:37.204Z,22.40
2022-08-16T07:26:08.498Z,22.41
2022-08-16T07:28:35.563Z,22.41
2022-08-16T07:31:03.309Z,22.44
2022-08-16T07:33:53.801Z,22.45
2022-08-16T07:36:22.837Z,22.56
2022-08-16T07:38:49.976Z,22.59
2022-08-16T07:41:17.458Z,22.69
2022-08-16T07:43:46.268Z,22.64
2022-08-16T07:46:38.752Z,22.64
2022-08-16T07:49:03.720Z,22.66
2022-08-16T07:51:35.581Z,22.67
2022-08-16T07:54:09.630Z,22.77
2022-08-16T07:56:38.093Z,22.81
2022-08-16T07:59:05.775Z,22.81
2022-08-16T08:01:33.571Z,22.89
2022-08-16T08:04:04.441Z,22.79
2022-08-16T08:10:29.657Z,23.04
2022-08-16T08:12:59.369Z,22.99
2022-08-16T08:19:20.981Z,22.96
2022-08-16T08:21:58.952Z,22.88
2022-08-16T08:24:32.343Z,22.98
2022-08-16T08:27:04.303Z,23.15
2022-08-16T08:29:37.450Z,23.23
2022-08-16T08:32:58.624Z,23.24
2022-08-16T08:34:52.563Z,23.31
2022-08-16T08:37:20.095Z,23.40
2022-08-16T08:39:55.299Z,23.32
2022-08-16T08:42:26.781Z,23.35
2022-08-16T08:44:54.716Z,23.42
2022-08-16T08:47:21.410Z,23.43
2022-08-16T08:49:55.188Z,23.37
2022-08-16T08:52:35.369Z,23.29
2022-08-16T08:55:09.237Z,23.23
2022-08-16T08:57:38.084Z,23.34
2022-08-16T09:00:07.896Z,23.41
2022-08-16T09:02:42.741Z,23.44
2022-08-16T09:05:15.442Z,23.52
2022-08-16T09:08:00.539Z,23.53
2022-08-16T09:10:30.598Z,23.69
2022-08-16T09:12:58.864Z,23.69
2022-08-16T09:19:16.523Z,23.74
2022-08-16T09:21:59.482Z,23.71
2022-08-16T09:24:51.474Z,23.64
2022-08-16T09:27:13.224Z,23.50
2022-08-16T09:29:45.349Z,23.62
2022-08-16T09:32:12.870Z,23.84
2022-08-16T09:34:58.281Z,23.90
2022-08-16T09:37:29.577Z,23.98
2022-08-16T09:40:01.051Z,24.07
2022-08-16T09:42:29.391Z,24.13
2022-08-16T09:45:11.823Z,24.21
2022-08-16T09:47:57.038Z,24.28
2022-08-16T09:50:36.830Z,24.39
2022-08-16T09:53:15.408Z,24.50
2022-08-16T09:55:49.442Z,24.56
2022-08-16T09:58:40.673Z,24.57
2022-08-16T10:01:08.738Z,24.70
2022-08-16T10:03:38.399Z,24.88
2022-08-16T10:06:26.250Z,24.88
2022-08-16T10:09:05.999Z,24.79
2022-08-16T10:11:54.014Z,24.82
2022-08-16T10:14:24.987Z,25.00
2022-08-16T10:17:02.704Z,24.98
2022-08-16T10:19:29.517Z,24.92
2022-08-16T10:21:58.989Z,24.94
2022-08-16T10:24:28.316Z,24.86
2022-08-16T10:27:16.668Z,24.87
2022-08-16T10:30:00.360Z,25.01
2022-08-16T10:32:30.546Z,25.03
2022-08-16T10:34:58.554Z,25.07
2022-08-16T10:37:32.751Z,25.24
2022-08-16T10:40:29.632Z,25.32
2022-08-16T10:42:56.253Z,25.44
2022-08-16T10:45:23.124Z,25.56
2022-08-16T10:48:00.552Z,25.53
2022-08-16T10:50:32.499Z,25.60
2022-08-16T10:53:00.102Z,25.57
2022-08-16T10:55:40.913Z,25.54
2022-08-16T10:58:13.708Z,25.54
2022-08-16T11:00:45.989Z,25.48
2022-08-16T11:06:03.222Z,25.41
2022-08-16T11:08:36.428Z,25.50
2022-08-16T11:11:13.005Z,25.74
2022-08-16T11:14:10.681Z,25.87
2022-08-16T11:19:22.798Z,25.92
2022-08-16T11:24:42.251Z,25.95
2022-08-16T11:27:23.463Z,26.00
2022-08-16T11:29:53.371Z,26.18
2022-08-16T11:32:31.366Z,26.27
2022-08-16T11:35:13.556Z,26.20
2022-08-16T11:40:56.799Z,26.18
2022-08-16T11:43:28.935Z,26.17
2022-08-16T11:45:57.831Z,26.19
2022-08-16T11:48:33.373Z,26.34
2022-08-16T11:51:01.683Z,26.45
2022-08-16T11:53:29.680Z,26.52
2022-08-16T11:56:03.436Z,26.55
2022-08-16T11:58:34.010Z,26.66
2022-08-16T12:01:00.855Z,26.72
2022-08-16T12:03:35.429Z,26.76
2022-08-16T12:06:10.994Z,26.71
2022-08-16T12:08:57.443Z,26.60
2022-08-16T12:11:28.153Z,26.56
2022-08-16T12:13:59.303Z,26.70
2022-08-16T12:16:31.181Z,26.70
2022-08-16T12:19:00.982Z,26.77
2022-08-16T12:21:57.543Z,26.81
2022-08-16T12:24:14.838Z,26.86
2022-08-16T12:26:42.656Z,26.91
2022-08-16T12:29:10.566Z,26.97
2022-08-16T12:31:37.298Z,26.97
2022-08-16T12:34:28.841Z,26.78
2022-08-16T12:36:56.023Z,26.88
2022-08-16T12:39:23.098Z,26.92
2022-08-16T12:41:49.953Z,26.90
2022-08-16T12:44:19.877Z,26.99
2022-08-16T12:47:08.237Z,27.07
2022-08-16T12:49:41.910Z,27.11
2022-08-16T12:52:09.072Z,27.14
2022-08-16T12:54:37.446Z,27.14
2022-08-16T12:57:14.002Z,27.05
2022-08-16T12:59:42.059Z,27.02
2022-08-16T13:02:12.576Z,26.87
2022-08-16T13:04:49.902Z,26.97
2022-08-16T13:07:18.142Z,27.11
2022-08-16T13:09:58.336Z,27.13
2022-08-16T13:12:28.439Z,27.30
2022-08-16T13:14:55.934Z,27.30
2022-08-16T13:17:26.502Z,27.34
2022-08-16T13:20:12.593Z,27.44
2022-08-16T13:22:49.957Z,27.46
2022-08-16T13:25:21.437Z,27.49
2022-08-16T13:28:03.100Z,27.46
2022-08-16T13:30:41.767Z,27.43
2022-08-16T13:33:16.923Z,27.48
2022-08-16T13:35:55.898Z,27.62
2022-08-16T13:38:26.058Z,27.54
2022-08-16T13:40:57.322Z,27.45
2022-08-16T13:43:26.399Z,27.43
2022-08-16T13:45:54.082Z,27.47
2022-08-16T13:48:25.346Z,27.45
2022-08-16T13:51:02.469Z,27.46
2022-08-16T13:53:31.024Z,27.56
2022-08-16T13:55:59.573Z,27.67
2022-08-16T13:58:36.716Z,27.69
2022-08-16T14:01:09.804Z,27.67
2022-08-16T14:03:40.998Z,27.55
2022-08-16T14:06:10.566Z,27.53
2022-08-16T14:08:42.005Z,27.55
2022-08-16T14:11:11.740Z,27.63
2022-08-16T14:13:39.662Z,27.62
2022-08-16T14:16:12.643Z,27.60
2022-08-16T14:18:52.662Z,27.60
2022-08-16T14:21:23.576Z,27.58
2022-08-16T14:23:52.290Z,27.65
2022-08-16T14:26:21.218Z,27.78
2022-08-16T14:28:50.400Z,27.80
2022-08-16T14:31:18.401Z,27.80
2022-08-16T14:33:45.534Z,27.70
2022-08-16T14:36:12.316Z,27.58
2022-08-16T14:38:45.560Z,27.54
2022-08-16T14:41:13.711Z,27.58
2022-08-16T14:43:40.623Z,27.59
2022-08-16T14:46:07.751Z,27.60
2022-08-16T14:48:34.816Z,27.69
2022-08-16T14:51:01.893Z,27.75
2022-08-16T14:53:28.808Z,27.76
2022-08-16T14:55:58.518Z,27.82
2022-08-16T14:58:34.995Z,27.85
2022-08-16T15:01:06.121Z,27.89
2022-08-16T15:03:37.382Z,27.85
2022-08-16T15:06:04.934Z,27.86
2022-08-16T15:08:34.157Z,27.90
2022-08-16T15:11:05.309Z,27.89
2022-08-16T15:13:32.529Z,27.88
2022-08-16T15:16:02.753Z,27.77
2022-08-16T15:18:31.561Z,27.76
2022-08-16T15:20:59.752Z,27.72
2022-08-16T15:23:28.400Z,27.72
2022-08-16T15:26:03.651Z,27.80
2022-08-16T15:28:32.780Z,27.79
2022-08-16T15:31:06.077Z,27.68
2022-08-16T15:33:43.335Z,27.58
2022-08-16T15:36:18.325Z,27.57
2022-08-16T15:38:56.189Z,27.53
2022-08-16T15:42:01.928Z,27.53
2022-08-16T15:44:38.910Z,27.55
2022-08-16T15:47:18.850Z,27.53
2022-08-16T15:49:53.091Z,27.49
2022-08-16T15:52:35.576Z,27.49
2022-08-16T15:55:23.654Z,27.50
2022-08-16T15:57:54.796Z,27.36
2022-08-16T16:00:21.774Z,27.30
2022-08-16T16:02:49.587Z,27.22
2022-08-16T16:05:17.127Z,27.16
2022-08-16T16:07:56.492Z,27.12
2022-08-16T16:10:31.415Z,27.14
2022-08-16T16:13:03.821Z,27.13
2022-08-16T16:15:34.766Z,27.16
2022-08-16T16:18:09.193Z,27.12
2022-08-16T16:20:37.354Z,27.09
2022-08-16T16:23:10.305Z,27.02
2022-08-16T16:25:38.774Z,26.97
2022-08-16T16:28:12.677Z,26.93
2022-08-16T16:30:44.857Z,26.81
2022-08-16T16:33:21.118Z,26.71
2022-08-16T16:35:55.579Z,26.66
2022-08-16T16:38:28.746Z,26.64
2022-08-16T16:40:56.002Z,26.58
2022-08-16T16:43:25.502Z,26.50
2022-08-16T16:45:58.271Z,26.41
2022-08-16T16:48:34.448Z,26.36
2022-08-16T16:51:09.022Z,26.32
2022-08-16T16:53:56.196Z,26.29
2022-08-16T16:56:31.089Z,26.24
2022-08-16T16:59:06.689Z,26.19
2022-08-16T17:01:59.344Z,26.13
2022-08-16T17:04:31.993Z,26.05
2022-08-16T17:07:03.712Z,26.01
2022-08-16T17:09:34.478Z,25.95
2022-08-16T17:12:07.731Z,25.91
2022-08-16T17:14:35.734Z,25.86
2022-08-16T17:17:08.623Z,25.82
2022-08-16T17:19:41.163Z,25.77
2022-08-16T17:22:15.218Z,25.73
2022-08-16T17:24:44.942Z,25.72
2022-08-16T17:27:18.081Z,25.67
2022-08-16T17:29:51.434Z,25.64
2022-08-16T17:32:33.844Z,25.59
2022-08-16T17:35:18.387Z,25.53
2022-08-16T17:37:51.686Z,25.47
2022-08-16T17:40:46.760Z,25.40
2022-08-16T17:43:16.330Z,25.33
2022-08-16T17:45:43.399Z,25.34
2022-08-16T17:48:10.836Z,25.31
2022-08-16T17:50:37.893Z,25.30
2022-08-16T17:53:05.211Z,25.26
2022-08-16T17:55:35.814Z,25.20
2022-08-16T17:58:09.748Z,25.13
2022-08-16T18:00:49.179Z,25.08
2022-08-16T18:04:07.373Z,25.02
2022-08-16T18:06:12.648Z,24.97
2022-08-16T18:08:39.924Z,24.91
2022-08-16T18:11:07.988Z,24.84
2022-08-16T18:13:34.746Z,24.77
2022-08-16T18:16:01.708Z,24.71
2022-08-16T18:18:28.414Z,24.63
2022-08-16T18:21:13.995Z,24.57
2022-08-16T18:23:40.733Z,24.47
2022-08-16T18:26:08.007Z,24.40
2022-08-16T18:28:37.774Z,24.32
2022-08-16T18:31:08.637Z,24.25
2022-08-16T18:33:43.312Z,24.17
2022-08-16T18:36:20.618Z,24.13
2022-08-16T18:38:48.930Z,24.07
2022-08-16T18:41:16.458Z,24.01
2022-08-16T18:44:22.256Z,23.96
2022-08-16T18:46:30.017Z,23.90
2022-08-16T18:48:57.027Z,23.86
2022-08-16T18:51:25.401Z,23.78
2022-08-16T18:53:52.507Z,23.71
2022-08-16T18:56:19.674Z,23.63
2022-08-16T18:58:46.608Z,23.57
2022-08-16T19:01:13.605Z,23.52
2022-08-16T19:03:40.516Z,23.49
2022-08-16T19:06:14.232Z,23.43
2022-08-16T19:08:44.125Z,23.38
2022-08-16T19:11:14.035Z,23.35
2022-08-16T19:13:44.284Z,23.30
2022-08-16T19:16:13.360Z,23.27
2022-08-16T19:18:40.642Z,23.21
2022-08-16T19:21:08.858Z,23.14
2022-08-16T19:23:37.227Z,23.09
2022-08-16T19:26:11.092Z,23.08
2022-08-16T19:28:59.069Z,23.08
2022-08-16T19:31:34.040Z,23.05
2022-08-16T19:34:02.115Z,22.99
2022-08-16T19:36:36.171Z,22.92
2022-08-16T19:39:10.476Z,22.85
2022-08-16T19:41:39.812Z,22.76
2022-08-16T19:44:07.081Z,22.68
2022-08-16T19:46:34.499Z,22.63
2022-08-16T19:49:01.228Z,22.59
2022-08-16T19:51:28.584Z,22.57
2022-08-16T19:53:55.457Z,22.53
2022-08-16T19:56:25.666Z,22.47
2022-08-16T19:59:17.481Z,22.44
2022-08-16T20:01:42.187Z,22.37
2022-08-16T20:04:12.076Z,22.34
2022-08-16T20:06:39.429Z,22.28
2022-08-16T20:09:06.704Z,22.25
2022-08-16T20:11:34.783Z,22.17
2022-08-16T20:14:02.033Z,22.13
2022-08-16T20:16:31.287Z,22.15
2022-08-16T20:19:01.258Z,22.11
2022-08-16T20:21:28.452Z,22.02
2022-08-16T20:24:09.912Z,21.93
2022-08-16T20:26:41.955Z,21.86
2022-08-16T20:29:08.885Z,21.82
2022-08-16T20:31:35.754Z,21.76
2022-08-16T20:34:02.450Z,21.72
2022-08-16T20:36:29.911Z,21.74
2022-08-16T20:38:57.748Z,21.74
2022-08-16T20:41:24.495Z,21.74
2022-08-16T20:43:51.274Z,21.69
2022-08-16T20:46:22.212Z,21.57
2022-08-16T20:48:49.133Z,21.49
2022-08-16T20:51:16.593Z,21.44
2022-08-16T20:53:44.020Z,21.39
2022-08-16T20:56:12.088Z,21.41
2022-08-16T20:58:39.641Z,21.35
2022-08-16T21:01:07.216Z,21.33
2022-08-16T21:03:34.409Z,21.33
2022-08-16T21:06:02.278Z,21.34
2022-08-16T21:08:52.068Z,21.30
2022-08-16T21:11:16.647Z,21.24
2022-08-16T21:13:43.356Z,21.15
2022-08-16T21:16:10.854Z,21.05
2022-08-16T21:18:37.584Z,20.98
2022-08-16T21:21:04.328Z,20.99
2022-08-16T21:23:31.069Z,20.97
2022-08-16T21:25:59.698Z,20.91
2022-08-16T21:28:40.878Z,20.84
2022-08-16T21:31:15.213Z,20.81
2022-08-16T21:33:43.192Z,20.81
2022-08-16T21:36:11.211Z,20.83
2022-08-16T21:38:39.026Z,20.78
2022-08-16T21:41:12.824Z,20.75
2022-08-16T21:43:40.289Z,20.68
2022-08-16T21:46:08.337Z,20.66
2022-08-16T21:48:36.916Z,20.66
2022-08-16T21:51:11.089Z,20.64
2022-08-16T21:53:37.981Z,20.60
2022-08-16T21:56:05.813Z,20.61
2022-08-16T21:58:33.134Z,20.59
2022-08-16T22:01:01.129Z,20.57
2022-08-16T22:03:28.427Z,20.52
2022-08-16T22:06:11.643Z,20.49
2022-08-16T22:08:48.691Z,20.47
2022-08-16T22:11:22.780Z,20.44
2022-08-16T22:13:57.481Z,20.43
2022-08-16T22:16:27.238Z,20.45
2022-08-16T22:18:53.899Z,20.38
2022-08-16T22:21:20.555Z,20.35
2022-08-16T22:23:56.548Z,20.29
2022-08-16T22:26:32.004Z,20.28
2022-08-16T22:29:05.564Z,20.30
2022-08-16T22:31:32.984Z,20.24
2022-08-16T22:34:01.840Z,20.24
2022-08-16T22:36:30.108Z,20.23
2022-08-16T22:39:02.978Z,20.12
2022-08-16T22:41:34.610Z,20.13
2022-08-16T22:44:03.373Z,20.09
2022-08-16T22:46:30.431Z,20.05
2022-08-16T22:48:57.714Z,20.01
2022-08-16T22:51:27.016Z,19.87
2022-08-16T22:53:54.695Z,19.81
2022-08-16T22:56:22.486Z,19.80
2022-08-16T22:58:49.385Z,19.79
2022-08-16T23:01:17.853Z,19.79
2022-08-16T23:03:44.874Z,19.80
2022-08-16T23:06:12.517Z,19.81
2022-08-16T23:08:41.495Z,19.85
2022-08-16T23:11:11.396Z,19.81
2022-08-16T23:13:50.718Z,19.77
2022-08-16T23:16:21.899Z,19.69
2022-08-16T23:18:49.455Z,19.69
2022-08-16T23:21:18.025Z,19.58
2022-08-16T23:23:46.667Z,19.49
2022-08-16T23:26:46.783Z,19.43
2022-08-16T23:29:04.367Z,19.37
2022-08-16T23:31:32.675Z,19.36
2022-08-16T23:33:59.926Z,19.36
2022-08-16T23:36:26.639Z,19.29
2022-08-16T23:38:53.358Z,19.24
2022-08-16T23:41:20.334Z,19.28
2022-08-16T23:43:47.266Z,19.26
2022-08-16T23:46:17.277Z,19.26
2022-08-16T23:49:56.077Z,19.29
2022-08-16T23:51:32.356Z,19.24
2022-08-16T23:54:00.008Z,19.28
2022-08-16T23:56:26.711Z,19.24
2022-08-16T23:59:02.213Z,19.19
